createdAt,value
2019-05-11T00:01:29.474Z,8.30
2019-05-11T00:04:00.350Z,10.53
2019-05-11T00:06:31.411Z,12.70
2019-05-11T00:09:02.363Z,9.03
2019-05-11T00:11:33.426Z,9.70
2019-05-11T00:14:04.081Z,10.90
2019-05-11T00:16:34.918Z,10.13
2019-05-11T00:19:05.995Z,10.85
2019-05-11T00:21:36.961Z,9.53
2019-05-11T00:24:08.014Z,10.58
2019-05-11T00:26:39.175Z,9.38
2019-05-11T00:29:10.222Z,12.00
2019-05-11T00:31:41.199Z,12.60
2019-05-11T00:34:12.054Z,10.80
2019-05-11T00:36:43.114Z,10.28
2019-05-11T00:39:14.075Z,10.30
2019-05-11T00:41:44.926Z,10.60
2019-05-11T00:44:15.977Z,10.82
2019-05-11T00:46:46.946Z,10.20
2019-05-11T00:49:18.109Z,9.78
2019-05-11T00:51:49.069Z,10.78
2019-05-11T00:54:20.112Z,10.08
2019-05-11T00:56:51.085Z,10.93
2019-05-11T00:59:22.233Z,10.95
2019-05-11T01:01:53.088Z,12.18
2019-05-11T01:04:24.167Z,12.90
2019-05-11T01:06:55.108Z,11.97
2019-05-11T01:09:26.087Z,11.53
2019-05-11T01:11:56.920Z,10.95
2019-05-11T01:14:27.898Z,13.90
2019-05-11T01:16:58.867Z,13.95
2019-05-11T01:19:29.712Z,19.15
2019-05-11T01:22:00.652Z,19.77
2019-05-11T01:24:31.629Z,23.65
2019-05-11T01:27:02.488Z,22.45
2019-05-11T01:29:33.544Z,24.60
2019-05-11T01:32:04.092Z,21.50
2019-05-11T01:34:35.056Z,27.90
2019-05-11T01:37:05.993Z,23.07
2019-05-11T01:39:36.956Z,24.50
2019-05-11T01:42:07.826Z,24.77
2019-05-11T01:44:38.874Z,27.75
2019-05-11T01:47:09.846Z,26.10
2019-05-11T01:49:40.911Z,25.57
2019-05-11T01:52:11.745Z,29.50
2019-05-11T01:54:42.622Z,31.75
2019-05-11T01:57:13.679Z,30.25
2019-05-11T01:59:44.639Z,32.17
2019-05-11T02:02:15.695Z,27.25
2019-05-11T02:04:48.294Z,27.10
2019-05-11T02:07:19.438Z,30.92
2019-05-11T02:09:50.413Z,31.93
2019-05-11T02:12:21.358Z,31.33
2019-05-11T02:14:52.431Z,28.32
2019-05-11T02:17:23.286Z,28.17
2019-05-11T02:19:54.348Z,30.10
2019-05-11T02:22:25.322Z,33.83
2019-05-11T02:24:56.266Z,32.60
2019-05-11T02:27:27.327Z,30.25
2019-05-11T02:29:58.390Z,27.45
2019-05-11T02:32:29.329Z,29.23
2019-05-11T02:35:00.405Z,23.95
2019-05-11T02:37:31.470Z,26.05
2019-05-11T02:40:02.426Z,21.15
2019-05-11T02:42:33.414Z,22.77
2019-05-11T02:45:06.109Z,22.55
2019-05-11T02:47:36.736Z,21.87
2019-05-11T02:50:07.791Z,24.85
2019-05-11T02:52:39.519Z,23.00
2019-05-11T02:55:10.752Z,23.30
2019-05-11T02:57:41.269Z,24.75
2019-05-11T03:00:12.492Z,18.42
2019-05-11T03:02:43.076Z,17.40
2019-05-11T03:05:14.060Z,13.40
2019-05-11T03:07:44.919Z,14.53
2019-05-11T03:10:16.071Z,13.95
2019-05-11T03:12:46.912Z,16.82
2019-05-11T03:15:17.890Z,13.85
2019-05-11T03:17:48.828Z,12.53
2019-05-11T03:20:19.918Z,12.20
2019-05-11T03:22:50.865Z,11.78
2019-05-11T03:25:21.823Z,12.20
2019-05-11T03:27:52.779Z,13.80
2019-05-11T03:30:24.068Z,13.88
2019-05-11T03:32:54.909Z,11.22
2019-05-11T03:35:25.863Z,16.35
2019-05-11T03:37:56.922Z,15.65
2019-05-11T03:40:27.760Z,15.35
2019-05-11T03:42:58.923Z,15.90
2019-05-11T03:45:29.879Z,15.50
2019-05-11T03:48:00.957Z,14.60
2019-05-11T03:50:31.903Z,18.48
2019-05-11T03:53:02.783Z,20.45
2019-05-11T03:55:33.733Z,20.32
2019-05-11T03:58:04.689Z,20.88
2019-05-11T04:00:35.731Z,25.43
2019-05-11T04:03:06.712Z,21.33
2019-05-11T04:05:37.556Z,25.60
2019-05-11T04:08:08.526Z,24.72
2019-05-11T04:10:39.481Z,24.60
2019-05-11T04:13:10.341Z,25.12
2019-05-11T04:15:41.381Z,27.55
2019-05-11T04:18:12.356Z,27.62
2019-05-11T04:20:43.399Z,27.62
2019-05-11T04:23:14.479Z,26.20
2019-05-11T04:25:45.641Z,26.62
2019-05-11T04:28:16.708Z,25.57
2019-05-11T04:30:47.661Z,22.80
2019-05-11T04:33:18.608Z,24.18
2019-05-11T04:35:49.563Z,26.33
2019-05-11T04:38:20.516Z,23.60
2019-05-11T04:40:51.642Z,22.90
2019-05-11T04:43:22.549Z,25.55
2019-05-11T04:45:53.690Z,21.77
2019-05-11T04:48:24.779Z,26.93
2019-05-11T04:50:55.822Z,21.60
2019-05-11T04:53:26.795Z,24.32
2019-05-11T04:55:57.650Z,25.30
2019-05-11T04:58:28.711Z,23.47
2019-05-11T05:00:59.664Z,22.05
2019-05-11T05:03:40.228Z,19.60
2019-05-11T05:06:21.296Z,18.45
2019-05-11T05:08:35.103Z,22.90
2019-05-11T05:11:06.060Z,20.72
2019-05-11T05:13:36.917Z,17.02
2019-05-11T05:16:07.979Z,19.80
2019-05-11T05:18:38.936Z,25.50
2019-05-11T05:21:10.098Z,22.17
2019-05-11T05:23:40.938Z,25.62
2019-05-11T05:26:11.913Z,26.05
2019-05-11T05:28:45.718Z,22.77
2019-05-11T05:31:15.671Z,20.30
2019-05-11T05:33:46.527Z,26.90
2019-05-11T05:36:17.568Z,21.35
2019-05-11T05:38:48.549Z,18.62
2019-05-11T05:41:19.611Z,17.35
2019-05-11T05:43:50.446Z,18.90
2019-05-11T05:46:21.303Z,19.35
2019-05-11T05:48:53.306Z,16.35
2019-05-11T05:51:24.463Z,13.90
2019-05-11T05:53:55.329Z,14.78
2019-05-11T05:56:26.442Z,18.30
2019-05-11T05:58:57.319Z,16.02
2019-05-11T06:01:28.381Z,17.25
2019-05-11T06:03:59.236Z,17.50
2019-05-11T06:06:30.108Z,14.05
2019-05-11T06:09:01.072Z,14.60
2019-05-11T06:11:32.013Z,13.28
2019-05-11T06:14:02.770Z,17.60
2019-05-11T06:16:33.839Z,15.25
2019-05-11T06:19:04.798Z,14.45
2019-05-11T06:21:35.654Z,14.85
2019-05-11T06:24:08.350Z,17.05
2019-05-11T06:26:39.110Z,15.25
2019-05-11T06:29:10.048Z,13.58
2019-05-11T06:31:41.013Z,9.38
2019-05-11T06:34:11.876Z,9.45
2019-05-11T06:36:46.119Z,10.08
2019-05-11T06:39:21.645Z,6.80
2019-05-11T06:41:56.302Z,4.70
2019-05-11T06:44:29.005Z,5.22
2019-05-11T06:47:04.220Z,3.85
2019-05-11T06:49:35.253Z,4.92
2019-05-11T06:52:06.163Z,2.85
2019-05-11T06:54:37.239Z,4.65
2019-05-11T06:57:08.194Z,3.20
2019-05-11T06:59:39.052Z,2.30
2019-05-11T07:02:10.217Z,2.62
2019-05-11T07:04:41.171Z,2.70
2019-05-11T07:07:12.237Z,2.05
2019-05-11T07:09:43.072Z,1.95
2019-05-11T07:12:14.026Z,1.98
2019-05-11T07:14:45.605Z,1.95
2019-05-11T07:17:16.376Z,1.37
2019-05-11T07:19:47.789Z,3.47
2019-05-11T07:22:18.907Z,1.92
2019-05-11T07:24:50.010Z,4.53
2019-05-11T07:27:21.128Z,1.62
2019-05-11T07:29:52.068Z,4.47
2019-05-11T07:32:26.059Z,1.77
2019-05-11T07:34:57.629Z,2.08
2019-05-11T07:37:28.140Z,2.65
2019-05-11T07:39:58.988Z,1.45
2019-05-11T07:42:30.058Z,1.60
2019-05-11T07:45:01.005Z,1.40
2019-05-11T07:47:32.066Z,1.45
2019-05-11T07:50:03.588Z,1.20
2019-05-11T07:52:34.841Z,1.17
2019-05-11T07:55:08.414Z,1.65
2019-05-11T07:57:39.335Z,1.95
2019-05-11T08:00:10.650Z,1.77
2019-05-11T08:02:41.296Z,1.40
2019-05-11T08:05:12.456Z,3.77
2019-05-11T08:07:43.416Z,4.25
2019-05-11T08:10:14.169Z,2.02
2019-05-11T08:12:44.911Z,1.32
2019-05-11T08:15:18.147Z,1.92
2019-05-11T08:17:49.003Z,2.52
2019-05-11T08:20:19.930Z,4.33
2019-05-11T08:22:50.906Z,1.17
2019-05-11T08:25:22.247Z,1.57
2019-05-11T08:27:54.354Z,2.92
2019-05-11T08:30:27.830Z,4.45
2019-05-11T08:32:58.354Z,2.52
2019-05-11T08:35:31.336Z,1.57
2019-05-11T08:38:01.665Z,1.22
2019-05-11T08:40:32.728Z,4.35
2019-05-11T08:43:03.584Z,2.70
2019-05-11T08:45:34.523Z,1.70
2019-05-11T08:48:08.155Z,2.22
2019-05-11T08:50:43.806Z,1.75
2019-05-11T08:53:14.866Z,3.27
2019-05-11T08:55:48.408Z,4.65
2019-05-11T08:58:19.363Z,3.27
2019-05-11T09:00:50.723Z,3.70
2019-05-11T09:03:21.568Z,4.40
2019-05-11T09:05:52.539Z,2.77
2019-05-11T09:08:23.598Z,3.15
2019-05-11T09:10:54.553Z,23.12
2019-05-11T09:13:27.689Z,8.83
2019-05-11T09:15:58.820Z,9.70
2019-05-11T09:18:29.973Z,20.82
2019-05-11T09:21:00.831Z,39.85
2019-05-11T09:23:37.310Z,78.80
2019-05-11T09:26:04.073Z,7.00
2019-05-11T09:28:35.031Z,4.03
2019-05-11T09:31:08.331Z,2.87
2019-05-11T09:33:38.771Z,4.10
2019-05-11T09:36:09.648Z,2.72
2019-05-11T09:38:40.831Z,3.15
2019-05-11T09:41:12.213Z,8.73
2019-05-11T09:43:43.406Z,3.70
2019-05-11T09:46:14.300Z,7.72
2019-05-11T09:48:45.274Z,5.87
2019-05-11T09:51:18.410Z,5.08
2019-05-11T09:53:49.440Z,7.17
2019-05-11T09:56:20.384Z,6.03
2019-05-11T09:58:51.358Z,6.95
2019-05-11T10:01:22.218Z,6.37
2019-05-11T10:03:53.276Z,5.00
2019-05-11T10:06:24.232Z,9.13
2019-05-11T10:08:55.093Z,9.35
2019-05-11T10:11:28.101Z,7.85
2019-05-11T10:13:58.322Z,6.25
2019-05-11T10:16:29.193Z,6.92
2019-05-11T10:19:00.235Z,8.18
2019-05-11T10:21:31.319Z,9.45
2019-05-11T10:24:02.357Z,6.65
2019-05-11T10:26:33.336Z,21.15
2019-05-11T10:29:04.193Z,13.60
2019-05-11T10:31:35.252Z,22.00
2019-05-11T10:34:08.465Z,9.63
2019-05-11T10:36:38.752Z,28.75
2019-05-11T10:39:10.173Z,21.73
2019-05-11T10:41:41.111Z,14.18
2019-05-11T10:44:12.088Z,14.87
2019-05-11T10:46:42.941Z,9.58
2019-05-11T10:49:14.005Z,19.37
2019-05-11T10:51:45.068Z,13.60
2019-05-11T10:54:18.507Z,13.62
2019-05-11T10:56:48.602Z,12.80
2019-05-11T10:59:19.584Z,11.60
2019-05-11T11:01:50.517Z,12.65
2019-05-11T11:04:21.475Z,12.68
2019-05-11T11:06:52.333Z,11.85
2019-05-11T11:09:23.409Z,11.10
2019-05-11T11:11:54.248Z,18.00
2019-05-11T11:14:25.126Z,15.10
2019-05-11T11:16:58.335Z,15.00
2019-05-11T11:19:29.140Z,10.95
2019-05-11T11:22:28.574Z,8.10
2019-05-11T11:24:32.314Z,7.05
2019-05-11T11:27:03.066Z,10.13
2019-05-11T11:29:34.147Z,7.47
2019-05-11T11:32:05.133Z,8.45
2019-05-11T11:34:38.232Z,8.93
2019-05-11T11:37:08.758Z,6.85
2019-05-11T11:39:39.816Z,9.68
2019-05-11T11:42:10.659Z,8.63
2019-05-11T11:44:41.859Z,6.70
2019-05-11T11:47:12.591Z,13.35
2019-05-11T11:49:43.539Z,19.65
2019-05-11T11:52:14.409Z,17.10
2019-05-11T11:54:45.452Z,19.30
2019-05-11T11:57:18.185Z,23.15
2019-05-11T11:59:48.818Z,15.75
2019-05-11T12:02:19.877Z,11.80
2019-05-11T12:04:50.735Z,16.95
2019-05-11T12:07:21.677Z,12.90
2019-05-11T12:09:52.654Z,13.35
2019-05-11T12:12:23.713Z,14.05
2019-05-11T12:14:54.682Z,10.70
2019-05-11T12:17:28.548Z,11.08
2019-05-11T12:19:59.688Z,10.95
2019-05-11T12:22:30.289Z,12.15
2019-05-11T12:25:02.067Z,11.63
2019-05-11T12:27:32.633Z,13.65
2019-05-11T12:30:04.424Z,10.53
2019-05-11T12:32:39.660Z,11.12
2019-05-11T12:35:10.194Z,9.68
2019-05-11T12:37:41.272Z,13.45
2019-05-11T12:40:13.388Z,14.87
2019-05-11T12:42:44.147Z,12.43
2019-05-11T12:45:15.302Z,13.50
2019-05-11T12:47:48.001Z,9.50
2019-05-11T12:50:19.846Z,12.95
2019-05-11T12:52:51.316Z,13.08
2019-05-11T12:55:22.798Z,24.32
2019-05-11T12:57:54.202Z,10.88
2019-05-11T13:00:30.448Z,12.28
2019-05-11T13:02:58.764Z,10.85
2019-05-11T13:05:30.308Z,10.13
2019-05-11T13:08:02.109Z,11.85
2019-05-11T13:10:33.247Z,12.30
2019-05-11T13:13:04.102Z,15.13
2019-05-11T13:15:35.058Z,12.53
2019-05-11T13:18:08.223Z,14.07
2019-05-11T13:20:38.291Z,12.65
2019-05-11T13:23:09.262Z,15.05
2019-05-11T13:25:40.219Z,15.55
2019-05-11T13:28:11.164Z,13.38
2019-05-11T13:30:42.121Z,12.73
2019-05-11T13:33:13.002Z,16.20
2019-05-11T13:35:44.053Z,16.00
2019-05-11T13:38:15.014Z,13.80
2019-05-11T13:40:45.867Z,12.50
2019-05-11T13:43:18.866Z,11.97
2019-05-11T13:45:49.201Z,14.50
2019-05-11T13:48:20.061Z,12.53
2019-05-11T13:50:51.034Z,14.50
2019-05-11T13:53:23.219Z,17.90
2019-05-11T13:55:54.484Z,17.12
2019-05-11T13:58:25.115Z,10.10
2019-05-11T14:00:58.317Z,18.02
2019-05-11T14:03:28.380Z,16.30
2019-05-11T14:05:59.426Z,12.37
2019-05-11T14:08:30.503Z,14.33
2019-05-11T14:11:01.261Z,11.95
2019-05-11T14:13:33.031Z,11.12
2019-05-11T14:16:04.075Z,12.23
2019-05-11T14:18:35.153Z,9.28
2019-05-11T14:21:08.017Z,11.68
2019-05-11T14:23:38.923Z,12.63
2019-05-11T14:26:09.853Z,11.30
2019-05-11T14:28:40.933Z,10.20
2019-05-11T14:31:11.806Z,12.60
2019-05-11T14:33:43.050Z,13.85
2019-05-11T14:36:14.009Z,9.68
2019-05-11T14:38:45.069Z,12.98
2019-05-11T14:41:18.100Z,11.70
2019-05-11T14:43:49.116Z,11.22
2019-05-11T14:46:21.422Z,11.05
2019-05-11T14:48:52.158Z,11.33
2019-05-11T14:51:23.235Z,9.38
2019-05-11T14:53:58.905Z,8.85
2019-05-11T14:56:27.992Z,8.88
2019-05-11T14:58:58.992Z,11.00
2019-05-11T15:01:29.817Z,10.78
2019-05-11T15:04:00.699Z,12.95
2019-05-11T15:06:31.649Z,10.55
2019-05-11T15:09:02.708Z,14.55
2019-05-11T15:11:33.650Z,10.20
2019-05-11T15:14:04.625Z,11.80
2019-05-11T15:16:38.153Z,8.13
2019-05-11T15:19:08.316Z,12.60
2019-05-11T15:21:39.345Z,7.17
2019-05-11T15:24:10.301Z,11.78
2019-05-11T15:26:41.359Z,8.38
2019-05-11T15:29:12.198Z,7.45
2019-05-11T15:31:43.073Z,7.15
2019-05-11T15:34:14.131Z,9.28
2019-05-11T15:36:45.236Z,10.88
2019-05-11T15:39:18.189Z,9.68
2019-05-11T15:41:48.951Z,10.18
2019-05-11T15:44:19.896Z,8.33
2019-05-11T15:46:50.867Z,11.22
2019-05-11T15:49:21.734Z,10.10
2019-05-11T15:51:52.785Z,8.30
2019-05-11T15:54:23.741Z,9.03
2019-05-11T15:56:54.377Z,7.87
2019-05-11T15:59:25.353Z,7.55
2019-05-11T16:01:58.136Z,7.37
2019-05-11T16:04:29.006Z,7.95
2019-05-11T16:07:00.108Z,6.60
2019-05-11T16:09:31.130Z,8.93
2019-05-11T16:12:02.096Z,7.08
2019-05-11T16:14:32.944Z,9.45
2019-05-11T16:17:04.005Z,8.45
2019-05-11T16:19:34.964Z,9.05
2019-05-11T16:22:10.074Z,10.38
2019-05-11T16:24:40.952Z,7.78
2019-05-11T16:27:12.034Z,10.35
2019-05-11T16:29:42.887Z,11.60
2019-05-11T16:32:13.932Z,9.08
2019-05-11T16:34:44.906Z,11.30
2019-05-11T16:37:18.234Z,12.07
2019-05-11T16:39:49.533Z,11.08
2019-05-11T16:42:20.340Z,12.18
2019-05-11T16:44:51.195Z,13.10
2019-05-11T16:47:22.239Z,35.45
2019-05-11T16:49:53.095Z,24.52
2019-05-11T16:52:24.057Z,25.37
2019-05-11T16:54:55.028Z,27.87
2019-05-11T16:57:26.402Z,20.55
2019-05-11T16:59:58.470Z,10.80
2019-05-11T17:02:30.489Z,16.17
2019-05-11T17:05:01.351Z,11.85
2019-05-11T17:07:32.362Z,15.53
2019-05-11T17:10:04.055Z,19.73
2019-05-11T17:12:34.788Z,17.57
2019-05-11T17:15:10.053Z,17.07
2019-05-11T17:17:40.609Z,15.63
2019-05-11T17:20:13.203Z,23.92
2019-05-11T17:22:47.973Z,32.15
2019-05-11T17:25:19.575Z,25.02
2019-05-11T17:27:50.683Z,20.65
2019-05-11T17:30:21.933Z,31.37
2019-05-11T17:32:52.599Z,16.35
2019-05-11T17:35:23.540Z,13.38
2019-05-11T17:37:54.516Z,12.03
2019-05-11T17:40:25.372Z,14.28
2019-05-11T17:42:58.502Z,23.50
2019-05-11T17:45:28.719Z,14.73
2019-05-11T17:47:59.562Z,16.48
2019-05-11T17:50:30.647Z,12.50
2019-05-11T17:53:01.478Z,11.30
2019-05-11T17:55:32.450Z,11.73
2019-05-11T17:58:03.233Z,12.80
2019-05-11T18:00:34.147Z,12.93
2019-05-11T18:03:07.386Z,13.93
2019-05-11T18:05:37.946Z,14.93
2019-05-11T18:08:08.937Z,52.20
2019-05-11T18:10:40.029Z,26.68
2019-05-11T18:13:11.002Z,29.65
2019-05-11T18:15:42.065Z,25.60
2019-05-11T18:18:13.021Z,22.27
2019-05-11T18:20:44.084Z,12.55
2019-05-11T18:23:15.040Z,18.30
2019-05-11T18:25:47.987Z,24.35
2019-05-11T18:28:18.371Z,16.40
2019-05-11T18:30:49.228Z,15.85
2019-05-11T18:33:20.353Z,14.43
2019-05-11T18:35:51.366Z,18.17
2019-05-11T18:38:22.412Z,14.45
2019-05-11T18:40:53.468Z,15.03
2019-05-11T18:43:27.982Z,16.20
2019-05-11T18:46:01.135Z,16.17
2019-05-11T18:48:32.176Z,17.55
2019-05-11T18:51:03.057Z,17.90
2019-05-11T18:53:34.091Z,18.57
2019-05-11T18:56:05.154Z,16.27
2019-05-11T18:58:38.250Z,15.95
2019-05-11T19:01:10.138Z,16.15
2019-05-11T19:03:42.343Z,19.05
2019-05-11T19:06:14.116Z,17.00
2019-05-11T19:08:45.075Z,18.00
2019-05-11T19:11:18.091Z,17.20
2019-05-11T19:13:48.304Z,19.35
2019-05-11T19:16:19.282Z,18.67
2019-05-11T19:18:50.116Z,21.35
2019-05-11T19:21:21.200Z,25.68
2019-05-11T19:23:52.259Z,23.20
2019-05-11T19:26:22.998Z,27.73
2019-05-11T19:28:53.867Z,25.17
2019-05-11T19:31:25.164Z,23.73
2019-05-11T19:33:58.023Z,27.22
2019-05-11T19:36:28.053Z,28.40
2019-05-11T19:38:59.219Z,24.82
2019-05-11T19:41:30.300Z,22.40
2019-05-11T19:44:01.936Z,29.48
2019-05-11T19:46:32.972Z,28.57
2019-05-11T19:49:03.565Z,27.10
2019-05-11T19:51:34.523Z,24.65
2019-05-11T19:54:05.292Z,25.92
2019-05-11T19:56:38.317Z,25.75
2019-05-11T19:59:08.845Z,23.38
2019-05-11T20:01:39.701Z,24.98
2019-05-11T20:04:10.764Z,21.65
2019-05-11T20:06:41.826Z,24.02
2019-05-11T20:09:12.985Z,24.00
2019-05-11T20:11:44.047Z,21.82
2019-05-11T20:14:14.884Z,26.17
2019-05-11T20:16:47.789Z,21.77
2019-05-11T20:19:19.089Z,24.07
2019-05-11T20:21:50.231Z,23.10
2019-05-11T20:24:21.087Z,26.37
2019-05-11T20:26:53.695Z,21.27
2019-05-11T20:29:24.743Z,20.88
2019-05-11T20:31:57.768Z,19.98
2019-05-11T20:34:28.999Z,25.60
2019-05-11T20:36:59.664Z,49.45
2019-05-11T20:39:30.622Z,59.63
2019-05-11T20:42:01.461Z,60.12
2019-05-11T20:44:32.639Z,61.55
2019-05-11T20:47:03.600Z,51.42
2019-05-11T20:49:34.455Z,45.20
2019-05-11T20:52:05.731Z,35.75
2019-05-11T20:54:38.473Z,39.63
2019-05-11T20:57:09.048Z,35.38
2019-05-11T20:59:40.027Z,34.88
2019-05-11T21:02:10.884Z,32.25
2019-05-11T21:04:41.945Z,31.17
2019-05-11T21:07:12.903Z,31.30
2019-05-11T21:09:43.961Z,24.07
2019-05-11T21:12:14.924Z,24.45
2019-05-11T21:14:45.758Z,29.10
2019-05-11T21:17:18.158Z,23.35
2019-05-11T21:19:49.134Z,23.20
2019-05-11T21:22:19.966Z,22.27
2019-05-11T21:24:50.838Z,27.98
2019-05-11T21:27:21.899Z,25.68
2019-05-11T21:29:52.859Z,23.27
2019-05-11T21:32:23.698Z,22.55
2019-05-11T21:34:54.879Z,21.52
2019-05-11T21:37:27.773Z,25.20
2019-05-11T21:39:58.018Z,29.07
2019-05-11T21:42:29.086Z,31.27
2019-05-11T21:45:00.144Z,35.35
2019-05-11T21:47:30.981Z,31.10
2019-05-11T21:50:02.078Z,27.07
2019-05-11T21:52:32.709Z,28.25
2019-05-11T21:55:03.548Z,23.85
2019-05-11T21:57:34.506Z,29.07
2019-05-11T22:00:08.778Z,26.37
2019-05-11T22:02:39.901Z,21.07
2019-05-11T22:05:10.911Z,25.72
2019-05-11T22:07:42.040Z,22.25
2019-05-11T22:10:14.838Z,28.60
2019-05-11T22:12:45.985Z,34.45
2019-05-11T22:15:17.066Z,30.68
2019-05-11T22:17:48.154Z,32.28
2019-05-11T22:20:19.182Z,31.85
2019-05-11T22:22:50.250Z,28.87
2019-05-11T22:25:21.202Z,24.20
2019-05-11T22:27:52.061Z,23.65
2019-05-11T22:30:23.128Z,27.90
2019-05-11T22:32:54.078Z,25.15
2019-05-11T22:35:25.138Z,27.22
2019-05-11T22:37:57.832Z,24.45
2019-05-11T22:40:28.398Z,28.07
2019-05-11T22:43:01.240Z,41.68
2019-05-11T22:45:31.835Z,32.45
2019-05-11T22:48:02.690Z,26.35
2019-05-11T22:50:33.735Z,29.90
2019-05-11T22:53:04.300Z,29.87
2019-05-11T22:55:35.156Z,25.77
2019-05-11T22:58:08.289Z,23.07
2019-05-11T23:00:44.029Z,33.78
2019-05-11T23:03:14.987Z,26.30
2019-05-11T23:05:47.613Z,27.75
2019-05-11T23:08:18.325Z,34.03
2019-05-11T23:10:49.294Z,30.27
2019-05-11T23:13:20.151Z,32.60
2019-05-11T23:15:51.194Z,23.85
2019-05-11T23:18:22.165Z,26.93
2019-05-11T23:20:53.026Z,25.65
2019-05-11T23:23:23.965Z,25.82
2019-05-11T23:25:54.942Z,30.45
2019-05-11T23:28:25.884Z,30.65
2019-05-11T23:30:58.249Z,31.80
2019-05-11T23:33:29.680Z,24.45
2019-05-11T23:36:00.617Z,26.57
2019-05-11T23:38:31.571Z,23.47
2019-05-11T23:41:02.663Z,26.02
2019-05-11T23:43:33.595Z,26.87
2019-05-11T23:46:04.652Z,27.17
2019-05-11T23:48:35.653Z,26.70
2019-05-11T23:51:08.763Z,26.42
2019-05-11T23:53:38.905Z,26.05
2019-05-11T23:56:09.900Z,25.25
2019-05-11T23:58:40.977Z,24.20
